Time;durP1;ratioP1;P1;durP2;ratioP2;P2;SDS_P1;SDS_P2;PMS_P1;PMS_P2;Temp;Humidity;BMP_temperature;BMP_pressure;BME280_temperature;BME280_humidity;BME280_pressure;Samples;Min_cycle;Max_cycle;Signal;HPM_P1;HPM_P2
2023/12/27 00:01:34;;;;;;;;;;;;;;;10.97;47.00;101602.16;5057273;28;19916;-83
2023/12/27 00:03:59;;;;;;;;;;;;;;;10.91;46.94;101617.28;5060693;28;19929;-82
2023/12/27 00:06:25;;;;;;;;;;;;;;;10.92;46.89;101618.09;5058060;28;19923;-83
2023/12/27 00:08:50;;;;;;;;;;;;;;;10.90;46.98;101627.19;5059763;28;20389;-83
2023/12/27 00:11:18;;;;;;;;;;;;;;;10.92;47.18;101631.50;5057122;28;19925;-83
2023/12/27 00:13:43;;;;;;;;;;;;;;;10.93;47.14;101623.22;5058042;28;20388;-84
2023/12/27 00:16:09;;;;;;;;;;;;;;;10.94;47.21;101634.78;5058875;28;19946;-83
2023/12/27 00:18:35;;;;;;;;;;;;;;;10.95;47.29;101636.41;5057801;28;20563;-84
2023/12/27 00:21:00;;;;;;;;;;;;;;;10.93;47.04;101639.31;5054760;28;19921;-83
2023/12/27 00:23:26;;;;;;;;;;;;;;;10.93;47.26;101643.88;5057278;28;19917;-83
2023/12/27 00:25:51;;;;;;;;;;;;;;;10.99;47.42;101642.97;5057347;28;19920;-84
2023/12/27 00:28:16;;;;;;;;;;;;;;;10.98;47.12;101647.50;5055074;28;19973;-83
2023/12/27 00:30:42;;;;;;;;;;;;;;;10.99;47.39;101651.81;5056814;28;20385;-83
2023/12/27 00:33:07;;;;;;;;;;;;;;;11.02;47.12;101651.38;5055300;28;19931;-83
2023/12/27 00:35:32;;;;;;;;;;;;;;;11.00;47.03;101658.81;5053497;28;19930;-83
2023/12/27 00:37:57;;;;;;;;;;;;;;;10.98;47.33;101658.25;5057999;28;20410;-83
2023/12/27 00:40:23;;;;;;;;;;;;;;;10.91;47.19;101652.13;5056973;28;19920;-83
2023/12/27 00:42:48;;;;;;;;;;;;;;;10.92;47.30;101655.63;5060477;28;19920;-83
2023/12/27 00:45:14;;;;;;;;;;;;;;;10.89;47.27;101665.78;5056244;28;20470;-83
2023/12/27 00:47:43;;;;;;;;;;;;;;;10.90;47.46;101663.91;5055257;28;19920;-83
2023/12/27 00:50:08;;;;;;;;;;;;;;;10.94;47.42;101670.44;5055717;28;20337;-84
2023/12/27 00:52:34;;;;;;;;;;;;;;;10.96;47.42;101663.00;5054506;28;19966;-83
2023/12/27 00:54:59;;;;;;;;;;;;;;;10.95;47.05;101674.78;5075873;28;19940;-83
2023/12/27 00:57:25;;;;;;;;;;;;;;;10.92;46.94;101669.84;5058123;28;20007;-83
2023/12/27 00:59:50;;;;;;;;;;;;;;;10.95;47.33;101671.25;5056004;28;19923;-83
2023/12/27 01:02:15;;;;;;;;;;;;;;;10.98;47.23;101674.31;5057254;28;20292;-83
2023/12/27 01:04:41;;;;;;;;;;;;;;;11.00;46.94;101674.91;5056144;28;19960;-83
2023/12/27 01:07:06;;;;;;;;;;;;;;;11.02;47.05;101677.38;5055591;28;20407;-83
2023/12/27 01:09:31;;;;;;;;;;;;;;;11.02;47.31;101675.50;5056210;28;19964;-83
2023/12/27 01:11:56;;;;;;;;;;;;;;;11.02;46.88;101685.41;5058092;28;20707;-83
2023/12/27 01:14:22;;;;;;;;;;;;;;;11.00;47.20;101691.00;5061373;28;19986;-82
2023/12/27 01:16:47;;;;;;;;;;;;;;;10.99;47.29;101697.41;5058784;28;20407;-83
2023/12/27 01:19:12;;;;;;;;;;;;;;;11.01;47.28;101708.72;5062998;28;20307;-83
2023/12/27 01:21:38;;;;;;;;;;;;;;;11.00;47.30;101708.97;5064396;28;19916;-84
2023/12/27 01:24:03;;;;;;;;;;;;;;;10.98;47.14;101727.13;5060798;28;19920;-83
2023/12/27 01:26:28;;;;;;;;;;;;;;;10.98;47.21;101729.81;5064876;28;19923;-83
2023/12/27 01:28:54;;;;;;;;;;;;;;;10.98;47.48;101727.97;5058589;28;19924;-84
2023/12/27 01:31:19;;;;;;;;;;;;;;;11.02;47.23;101726.44;5058923;28;20586;-84
2023/12/27 01:33:44;;;;;;;;;;;;;;;11.00;47.25;101731.22;5059863;28;19916;-83
2023/12/27 01:36:10;;;;;;;;;;;;;;;10.99;46.98;101734.97;5063550;28;19975;-83
2023/12/27 01:38:35;;;;;;;;;;;;;;;10.96;47.45;101746.13;5054996;28;20024;-82
2023/12/27 01:41:00;;;;;;;;;;;;;;;10.95;47.50;101747.19;5063376;28;19951;-83
2023/12/27 01:43:25;;;;;;;;;;;;;;;10.91;47.41;101756.69;5057041;28;20388;-83
2023/12/27 01:45:51;;;;;;;;;;;;;;;10.91;47.28;101748.66;5054995;28;19931;-83
2023/12/27 01:48:20;;;;;;;;;;;;;;;10.88;47.47;101751.78;5053449;28;19928;-83
2023/12/27 01:50:46;;;;;;;;;;;;;;;10.90;47.62;101755.06;5059372;28;20377;-83
2023/12/27 01:53:11;;;;;;;;;;;;;;;10.88;47.39;101766.03;5058250;28;19920;-83
2023/12/27 01:55:37;;;;;;;;;;;;;;;10.88;47.52;101765.19;5057152;28;19928;-83
2023/12/27 01:58:02;;;;;;;;;;;;;;;10.83;47.63;101768.56;5055477;28;19921;-84
2023/12/27 02:00:28;;;;;;;;;;;;;;;10.84;47.55;101766.69;5060709;28;19920;-83
2023/12/27 02:02:53;;;;;;;;;;;;;;;10.87;47.21;101779.66;5060584;28;19967;-84
2023/12/27 02:05:19;;;;;;;;;;;;;;;10.83;47.72;101779.28;5064292;28;19935;-83
2023/12/27 02:07:45;;;;;;;;;;;;;;;10.86;47.37;101783.38;5059291;28;20438;-83
2023/12/27 02:10:11;;;;;;;;;;;;;;;10.84;47.43;101785.47;5060073;28;20522;-83
2023/12/27 02:12:36;;;;;;;;;;;;;;;10.83;47.48;101786.50;5061455;28;19924;-84
2023/12/27 02:15:01;;;;;;;;;;;;;;;10.80;47.50;101795.00;5056439;28;20336;-83
2023/12/27 02:17:27;;;;;;;;;;;;;;;10.85;47.26;101789.78;5064940;28;20296;-83
2023/12/27 02:19:53;;;;;;;;;;;;;;;10.81;47.57;101802.00;5056955;28;19978;-83
2023/12/27 02:22:20;;;;;;;;;;;;;;;10.80;47.43;101793.16;5057260;28;19959;-84
2023/12/27 02:24:46;;;;;;;;;;;;;;;10.73;47.58;101807.66;5063415;28;19917;-82
2023/12/27 02:27:12;;;;;;;;;;;;;;;10.71;47.60;101807.88;5058742;28;19965;-83
2023/12/27 02:29:37;;;;;;;;;;;;;;;10.73;47.54;101796.94;5062740;28;19920;-83
2023/12/27 02:32:03;;;;;;;;;;;;;;;10.71;47.75;101790.97;5054202;28;19916;-83
2023/12/27 02:34:28;;;;;;;;;;;;;;;10.68;47.78;101802.16;5059407;28;19920;-83
2023/12/27 02:36:53;;;;;;;;;;;;;;;10.70;47.71;101808.91;5062319;28;20384;-83
2023/12/27 02:39:19;;;;;;;;;;;;;;;10.73;47.56;101800.44;5061784;28;19917;-83
2023/12/27 02:41:44;;;;;;;;;;;;;;;10.77;47.82;101803.47;5060532;28;20285;-83
2023/12/27 02:44:09;;;;;;;;;;;;;;;10.79;47.62;101798.72;5056987;28;19959;-82
2023/12/27 02:46:35;;;;;;;;;;;;;;;10.76;47.44;101810.69;5059544;28;19917;-83
2023/12/27 02:49:00;;;;;;;;;;;;;;;10.76;47.71;101815.25;5064600;28;20394;-83
2023/12/27 02:51:25;;;;;;;;;;;;;;;10.70;47.61;101816.97;5062364;28;19916;-84
2023/12/27 02:53:50;;;;;;;;;;;;;;;10.71;47.56;101823.13;5055462;28;19959;-83
2023/12/27 02:56:16;;;;;;;;;;;;;;;10.69;47.68;101814.50;5052891;28;20020;-83
2023/12/27 02:58:41;;;;;;;;;;;;;;;10.75;47.98;101813.59;5053866;28;19923;-82
2023/12/27 03:01:07;;;;;;;;;;;;;;;10.78;47.47;101814.00;5062621;28;19924;-83
2023/12/27 03:03:32;;;;;;;;;;;;;;;10.76;47.89;101817.91;5062580;28;19916;-83
2023/12/27 03:05:57;;;;;;;;;;;;;;;10.79;47.69;101814.81;5057593;28;20683;-83
2023/12/27 03:08:22;;;;;;;;;;;;;;;10.77;47.75;101827.59;5054590;28;19963;-83
2023/12/27 03:10:48;;;;;;;;;;;;;;;10.77;47.66;101828.44;5056771;28;19927;-83
2023/12/27 03:13:13;;;;;;;;;;;;;;;10.83;47.48;101832.09;5058408;28;20074;-84
2023/12/27 03:15:39;;;;;;;;;;;;;;;10.79;47.53;101825.53;5054891;28;19921;-84
2023/12/27 03:18:04;;;;;;;;;;;;;;;10.76;47.62;101820.59;5052938;28;19923;-84
2023/12/27 03:20:29;;;;;;;;;;;;;;;10.72;47.84;101824.78;5055987;28;20494;-84
2023/12/27 03:22:54;;;;;;;;;;;;;;;10.74;47.58;101838.78;5062265;28;20598;-83
2023/12/27 03:25:20;;;;;;;;;;;;;;;10.76;47.80;101848.22;5056649;28;19920;-84
2023/12/27 03:27:45;;;;;;;;;;;;;;;10.77;47.49;101846.38;5054605;28;19966;-82
2023/12/27 03:30:10;;;;;;;;;;;;;;;10.75;47.56;101851.94;5062149;28;20444;-84
2023/12/27 03:32:36;;;;;;;;;;;;;;;10.77;47.56;101849.88;5054648;28;19920;-83
2023/12/27 03:35:02;;;;;;;;;;;;;;;10.79;47.59;101852.34;5058554;28;19931;-83
2023/12/27 03:37:27;;;;;;;;;;;;;;;10.78;47.66;101861.44;5058343;28;19916;-83
2023/12/27 03:39:53;;;;;;;;;;;;;;;10.77;47.89;101859.75;5063249;28;20013;-84
2023/12/27 03:42:19;;;;;;;;;;;;;;;10.77;47.81;101865.13;5063766;28;20369;-83
2023/12/27 03:44:45;;;;;;;;;;;;;;;10.75;47.58;101860.00;5055288;28;19935;-84
2023/12/27 03:47:10;;;;;;;;;;;;;;;10.72;47.93;101859.63;5064473;28;19924;-83
2023/12/27 03:49:35;;;;;;;;;;;;;;;10.69;47.63;101863.56;5059023;28;19928;-83
2023/12/27 03:52:01;;;;;;;;;;;;;;;10.74;47.82;101868.25;5057546;28;19924;-83
2023/12/27 03:54:26;;;;;;;;;;;;;;;10.71;47.72;101868.72;5062261;28;20411;-83
2023/12/27 03:56:51;;;;;;;;;;;;;;;10.65;47.85;101866.91;5061517;28;19917;-83
2023/12/27 03:59:16;;;;;;;;;;;;;;;10.58;48.12;101862.41;5057983;28;20005;-84
2023/12/27 04:01:42;;;;;;;;;;;;;;;10.61;47.99;101866.56;5064998;28;19943;-83
2023/12/27 04:04:08;;;;;;;;;;;;;;;10.59;48.16;101863.25;5055078;28;19932;-83
2023/12/27 04:06:33;;;;;;;;;;;;;;;10.58;48.08;101864.28;5057447;28;19920;-83
2023/12/27 04:08:58;;;;;;;;;;;;;;;10.56;48.08;101867.19;5063050;28;19935;-84
2023/12/27 04:11:23;;;;;;;;;;;;;;;10.56;48.32;101861.00;5064207;28;19928;-83
2023/12/27 04:13:49;;;;;;;;;;;;;;;10.57;48.38;101863.47;5054165;28;20007;-82
2023/12/27 04:16:14;;;;;;;;;;;;;;;10.64;47.83;101865.28;5056017;28;20309;-84
2023/12/27 04:18:39;;;;;;;;;;;;;;;10.58;48.13;101861.59;5056121;28;20003;-84
2023/12/27 04:21:05;;;;;;;;;;;;;;;10.56;48.01;101863.69;5061454;28;19940;-83
2023/12/27 04:23:30;;;;;;;;;;;;;;;10.54;47.83;101866.59;5056908;28;19951;-84
2023/12/27 04:25:55;;;;;;;;;;;;;;;10.50;48.26;101865.41;5057268;28;20392;-84
2023/12/27 04:28:21;;;;;;;;;;;;;;;10.53;48.17;101875.66;5056655;28;20154;-83
2023/12/27 04:30:46;;;;;;;;;;;;;;;10.57;47.84;101873.38;5061746;28;19924;-82
2023/12/27 04:33:11;;;;;;;;;;;;;;;10.51;48.30;101883.13;5057107;28;20054;-84
2023/12/27 04:35:36;;;;;;;;;;;;;;;10.46;48.34;101891.00;5054855;28;19927;-83
2023/12/27 04:38:02;;;;;;;;;;;;;;;10.45;48.47;101892.03;5057120;28;19924;-84
2023/12/27 04:40:28;;;;;;;;;;;;;;;10.44;47.92;101906.47;5054052;28;20341;-83
2023/12/27 04:42:53;;;;;;;;;;;;;;;10.42;48.01;101903.19;5055045;28;20078;-84
2023/12/27 04:45:18;;;;;;;;;;;;;;;10.43;48.28;101907.53;5054690;28;19920;-84
2023/12/27 04:47:44;;;;;;;;;;;;;;;10.40;48.29;101902.56;5061229;28;19916;-83
2023/12/27 04:50:09;;;;;;;;;;;;;;;10.42;48.25;101918.47;5061945;28;19928;-83
2023/12/27 04:52:34;;;;;;;;;;;;;;;10.39;48.38;101913.50;5061861;28;19928;-83
2023/12/27 04:54:59;;;;;;;;;;;;;;;10.41;47.91;101912.28;5064126;28;20385;-83
2023/12/27 04:57:25;;;;;;;;;;;;;;;10.36;48.22;101920.13;5066420;28;19923;-84
2023/12/27 04:59:50;;;;;;;;;;;;;;;10.30;48.28;101918.34;5063844;28;19923;-83
2023/12/27 05:02:15;;;;;;;;;;;;;;;10.26;48.49;101919.81;5059746;28;19924;-83
2023/12/27 05:04:41;;;;;;;;;;;;;;;10.24;48.36;101929.91;5057689;28;19921;-83
2023/12/27 05:07:06;;;;;;;;;;;;;;;10.23;48.68;101933.59;5059150;28;19928;-84
2023/12/27 05:09:31;;;;;;;;;;;;;;;10.20;48.56;101924.13;5066845;28;20397;-83
2023/12/27 05:11:56;;;;;;;;;;;;;;;10.23;48.29;101938.97;5062967;28;20049;-84
2023/12/27 05:14:22;;;;;;;;;;;;;;;10.28;48.16;101939.16;5062023;28;19928;-83
2023/12/27 05:16:47;;;;;;;;;;;;;;;10.25;48.29;101947.63;5061693;28;20324;-83
2023/12/27 05:19:12;;;;;;;;;;;;;;;10.24;48.59;101946.81;5054848;28;19971;-83
2023/12/27 05:21:38;;;;;;;;;;;;;;;10.27;48.54;101950.91;5056121;28;19924;-83
2023/12/27 05:24:03;;;;;;;;;;;;;;;10.29;48.46;101960.38;5054429;28;19928;-83
2023/12/27 05:26:28;;;;;;;;;;;;;;;10.33;48.55;101959.94;5056973;28;19920;-83
2023/12/27 05:28:53;;;;;;;;;;;;;;;10.26;48.29;101960.81;5054936;28;20351;-84
2023/12/27 05:31:19;;;;;;;;;;;;;;;10.20;48.82;101963.47;5056073;28;19923;-83
2023/12/27 05:33:44;;;;;;;;;;;;;;;10.21;48.81;101962.47;5056134;28;20522;-83
2023/12/27 05:36:10;;;;;;;;;;;;;;;10.26;48.60;101954.63;5057568;28;20034;-83
2023/12/27 05:38:35;;;;;;;;;;;;;;;10.24;48.36;101956.72;5055931;28;19917;-84
2023/12/27 05:41:00;;;;;;;;;;;;;;;10.22;48.69;101964.13;5055671;28;19925;-83
2023/12/27 05:43:26;;;;;;;;;;;;;;;10.23;48.53;101958.56;5058473;28;19956;-83
2023/12/27 05:45:51;;;;;;;;;;;;;;;10.17;48.64;101970.09;5063183;28;20388;-83
2023/12/27 05:48:16;;;;;;;;;;;;;;;10.16;48.82;101981.84;5063883;28;19924;-83
2023/12/27 05:50:42;;;;;;;;;;;;;;;10.12;48.87;101972.59;5061408;28;20381;-83
2023/12/27 05:53:07;;;;;;;;;;;;;;;10.13;48.89;101982.28;5062369;28;20007;-84
2023/12/27 05:55:32;;;;;;;;;;;;;;;10.16;48.49;101983.69;5064915;28;19927;-83
2023/12/27 05:57:58;;;;;;;;;;;;;;;10.17;48.68;101972.78;5058029;28;19925;-83
2023/12/27 06:00:23;;;;;;;;;;;;;;;10.23;48.74;101979.13;5058852;28;19925;-83
2023/12/27 06:02:49;;;;;;;;;;;;;;;10.22;48.51;101983.69;5062411;28;20432;-83
2023/12/27 06:05:14;;;;;;;;;;;;;;;10.19;48.55;101984.09;5062912;28;19924;-83
2023/12/27 06:07:40;;;;;;;;;;;;;;;10.17;48.75;101982.66;5055253;28;19916;-83
2023/12/27 06:10:06;;;;;;;;;;;;;;;10.13;48.72;101981.47;5056012;28;20028;-83
2023/12/27 06:12:31;;;;;;;;;;;;;;;10.12;48.83;101979.81;5060611;28;19924;-83
2023/12/27 06:14:56;;;;;;;;;;;;;;;10.09;48.45;101988.28;5055134;28;20782;-83
2023/12/27 06:17:21;;;;;;;;;;;;;;;10.07;48.76;101991.19;5055814;28;20029;-83
2023/12/27 06:19:47;;;;;;;;;;;;;;;10.09;49.16;101993.63;5055782;28;19944;-83
2023/12/27 06:22:12;;;;;;;;;;;;;;;10.14;48.97;101994.63;5057477;28;19924;-82
2023/12/27 06:24:37;;;;;;;;;;;;;;;10.12;48.75;102006.59;5058771;28;19947;-83
2023/12/27 06:27:06;;;;;;;;;;;;;;;10.09;48.92;102007.03;5057485;28;19932;-83
2023/12/27 06:29:31;;;;;;;;;;;;;;;10.12;48.53;102012.78;5054862;28;20641;-83
2023/12/27 06:31:57;;;;;;;;;;;;;;;10.08;48.98;102024.94;5056651;28;19921;-84
2023/12/27 06:34:22;;;;;;;;;;;;;;;10.10;48.95;102022.88;5067353;28;19920;-84
2023/12/27 06:36:48;;;;;;;;;;;;;;;10.11;48.57;102021.03;5088430;28;20404;-83
2023/12/27 06:39:13;;;;;;;;;;;;;;;10.13;48.64;102025.13;5061681;28;19920;-84
2023/12/27 06:41:38;;;;;;;;;;;;;;;10.15;48.76;102038.31;5054724;28;19927;-83
2023/12/27 06:44:04;;;;;;;;;;;;;;;10.13;48.59;102045.72;5062677;28;19923;-83
2023/12/27 06:46:29;;;;;;;;;;;;;;;10.13;48.68;102048.41;5060278;28;20050;-83
2023/12/27 06:48:54;;;;;;;;;;;;;;;10.09;48.46;102044.53;5062716;28;19940;-83
2023/12/27 06:51:20;;;;;;;;;;;;;;;10.06;48.43;102048.44;5062301;28;19921;-83
2023/12/27 06:53:45;;;;;;;;;;;;;;;10.05;48.78;102059.34;5057339;28;19920;-83
2023/12/27 06:56:12;;;;;;;;;;;;;;;10.12;48.50;102062.84;5064617;28;20400;-83
2023/12/27 06:58:37;;;;;;;;;;;;;;;10.06;48.66;102071.72;5061869;28;20019;-83
2023/12/27 07:01:03;;;;;;;;;;;;;;;10.05;48.40;102075.41;5062191;28;20070;-83
2023/12/27 07:03:28;;;;;;;;;;;;;;;10.02;49.00;102081.19;5064445;28;19924;-83
2023/12/27 07:05:53;;;;;;;;;;;;;;;10.06;48.38;102087.78;5061828;28;19920;-83
2023/12/27 07:08:18;;;;;;;;;;;;;;;9.95;48.43;102087.41;5061092;28;19917;-83
2023/12/27 07:10:44;;;;;;;;;;;;;;;9.86;48.66;102091.34;5053522;28;20281;-83
2023/12/27 07:13:09;;;;;;;;;;;;;;;9.80;48.93;102099.38;5057104;28;19921;-84
2023/12/27 07:15:35;;;;;;;;;;;;;;;9.76;49.13;102095.50;5057381;28;20020;-83
2023/12/27 07:18:00;;;;;;;;;;;;;;;9.73;49.00;102096.75;5054662;28;19927;-83
2023/12/27 07:20:25;;;;;;;;;;;;;;;9.68;49.09;102101.88;5057736;28;20415;-83
2023/12/27 07:22:51;;;;;;;;;;;;;;;9.69;49.33;102109.72;5060467;28;19920;-83
2023/12/27 07:25:16;;;;;;;;;;;;;;;9.68;49.06;102116.06;5057398;28;19927;-83
2023/12/27 07:27:41;;;;;;;;;;;;;;;9.64;49.05;102116.72;5056334;28;19917;-83
2023/12/27 07:30:07;;;;;;;;;;;;;;;9.65;48.75;102118.34;5059375;28;20481;-83
2023/12/27 07:32:32;;;;;;;;;;;;;;;9.56;49.24;102117.75;5059115;28;20465;-83
2023/12/27 07:34:58;;;;;;;;;;;;;;;9.55;49.21;102120.66;5057301;28;19924;-84
2023/12/27 07:37:24;;;;;;;;;;;;;;;9.53;49.18;102120.03;5060826;28;19966;-83
2023/12/27 07:39:49;;;;;;;;;;;;;;;9.54;49.21;102132.38;5059433;28;20544;-83
2023/12/27 07:42:14;;;;;;;;;;;;;;;9.55;49.51;102139.38;5060139;28;19948;-83
2023/12/27 07:44:39;;;;;;;;;;;;;;;9.59;49.41;102140.59;5057198;28;21451;-83
2023/12/27 07:47:06;;;;;;;;;;;;;;;9.60;49.29;102137.72;5055807;28;20020;-83
2023/12/27 07:49:32;;;;;;;;;;;;;;;9.62;49.60;102135.66;5057611;28;19921;-83
2023/12/27 07:51:57;;;;;;;;;;;;;;;9.67;49.39;102143.06;5058805;28;19928;-82
2023/12/27 07:54:22;;;;;;;;;;;;;;;9.69;49.57;102143.66;5057630;28;20033;-84
2023/12/27 07:56:47;;;;;;;;;;;;;;;9.68;49.18;102144.69;5059143;28;19924;-83
2023/12/27 07:59:13;;;;;;;;;;;;;;;9.72;49.33;102142.44;5058983;28;19962;-82
2023/12/27 08:01:38;;;;;;;;;;;;;;;9.79;49.25;102141.41;5057438;28;20508;-83
2023/12/27 08:04:03;;;;;;;;;;;;;;;9.77;49.24;102140.78;5058899;28;19928;-82
2023/12/27 08:06:28;;;;;;;;;;;;;;;9.80;49.05;102140.38;5057566;28;19974;-83
2023/12/27 08:08:55;;;;;;;;;;;;;;;9.81;49.07;102149.22;5056276;28;19928;-83
2023/12/27 08:11:21;;;;;;;;;;;;;;;9.82;49.22;102150.84;5057764;28;19966;-83
2023/12/27 08:13:46;;;;;;;;;;;;;;;9.83;48.94;102147.97;5058817;28;19917;-83
2023/12/27 08:16:12;;;;;;;;;;;;;;;9.82;49.04;102148.19;5056713;28;19926;-83
2023/12/27 08:18:37;;;;;;;;;;;;;;;9.78;49.07;102155.81;5058509;28;19924;-83
2023/12/27 08:21:04;;;;;;;;;;;;;;;9.79;49.07;102152.09;5053599;28;20024;-83
2023/12/27 08:23:30;;;;;;;;;;;;;;;9.81;49.18;102170.63;5057388;28;20385;-83
2023/12/27 08:25:56;;;;;;;;;;;;;;;9.83;49.01;102169.38;5054269;28;20427;-84
2023/12/27 08:28:22;;;;;;;;;;;;;;;9.87;49.14;102175.97;5059972;28;19925;-83
2023/12/27 08:30:49;;;;;;;;;;;;;;;9.90;49.14;102180.94;5056652;28;20447;-83
2023/12/27 08:33:15;;;;;;;;;;;;;;;9.94;49.26;102176.78;5061307;28;19927;-83
2023/12/27 08:35:40;;;;;;;;;;;;;;;10.02;48.89;102193.66;5055820;28;19979;-83
2023/12/27 08:38:06;;;;;;;;;;;;;;;10.07;49.03;102193.88;5053313;28;19924;-82
2023/12/27 08:40:31;;;;;;;;;;;;;;;10.11;48.86;102203.94;5047997;28;19931;-83
2023/12/27 08:42:57;;;;;;;;;;;;;;;10.11;48.92;102200.44;5049454;28;20051;-83
2023/12/27 08:45:23;;;;;;;;;;;;;;;10.14;49.18;102208.06;5047495;28;19924;-83
2023/12/27 08:47:48;;;;;;;;;;;;;;;10.16;49.00;102204.13;5049092;28;19978;-83
2023/12/27 08:50:13;;;;;;;;;;;;;;;10.18;49.14;102198.56;5047563;28;21279;-83
2023/12/27 08:52:39;;;;;;;;;;;;;;;10.24;48.92;102198.59;5048215;28;19937;-83
2023/12/27 08:55:05;;;;;;;;;;;;;;;10.31;49.21;102203.94;5047916;28;20399;-83
2023/12/27 08:57:31;;;;;;;;;;;;;;;10.36;48.94;102211.31;5049982;28;19987;-83
2023/12/27 08:59:56;;;;;;;;;;;;;;;10.35;48.69;102215.88;5048280;28;20011;-83
2023/12/27 09:02:23;;;;;;;;;;;;;;;10.29;48.80;102219.41;5047863;28;19976;-83
2023/12/27 09:04:48;;;;;;;;;;;;;;;10.33;49.15;102220.63;5052122;28;19974;-88
2023/12/27 09:07:13;;;;;;;;;;;;;;;10.43;48.81;102222.88;5054090;28;19925;-87
2023/12/27 09:09:39;;;;;;;;;;;;;;;10.41;48.91;102219.53;5053029;28;19974;-87
2023/12/27 09:12:05;;;;;;;;;;;;;;;10.46;48.90;102222.44;5054723;28;19924;-88
2023/12/27 09:14:31;;;;;;;;;;;;;;;10.48;48.69;102223.03;5053605;28;19970;-84
2023/12/27 09:16:56;;;;;;;;;;;;;;;10.52;48.58;102219.72;5052577;28;19917;-87
2023/12/27 09:19:21;;;;;;;;;;;;;;;10.54;48.79;102225.69;5051581;28;19924;-89
2023/12/27 09:21:46;;;;;;;;;;;;;;;10.54;48.93;102223.00;5053474;28;19925;-87
2023/12/27 09:24:12;;;;;;;;;;;;;;;10.58;48.64;102226.91;5056761;28;19916;-85
2023/12/27 09:26:37;;;;;;;;;;;;;;;10.58;48.59;102229.59;5055881;28;20027;-87
2023/12/27 09:29:03;;;;;;;;;;;;;;;10.65;48.71;102226.91;5055249;28;19928;-88
2023/12/27 09:31:30;;;;;;;;;;;;;;;10.70;48.72;102223.56;5056264;28;19925;-87
2023/12/27 09:33:59;;;;;;;;;;;;;;;10.69;48.80;102229.97;5056265;28;20339;-85
2023/12/27 09:36:25;;;;;;;;;;;;;;;10.74;48.71;102232.84;5056240;28;20319;-88
2023/12/27 09:38:50;;;;;;;;;;;;;;;10.81;48.76;102231.78;5060001;28;19930;-84
2023/12/27 09:41:15;;;;;;;;;;;;;;;10.84;48.51;102233.22;5054718;28;19927;-87
2023/12/27 09:43:42;;;;;;;;;;;;;;;10.85;48.54;102230.31;5058256;28;19969;-90
2023/12/27 09:46:09;;;;;;;;;;;;;;;10.80;48.40;102235.50;5060819;28;20584;-91
2023/12/27 09:48:35;;;;;;;;;;;;;;;10.79;48.14;102233.03;5056329;28;19935;-86
2023/12/27 09:51:01;;;;;;;;;;;;;;;10.69;48.30;102227.28;5057344;28;19931;-86
2023/12/27 09:53:27;;;;;;;;;;;;;;;10.70;48.53;102235.13;5057229;28;20286;-88
2023/12/27 09:55:54;;;;;;;;;;;;;;;10.69;48.36;102222.75;5058337;28;20007;-82
2023/12/27 09:58:20;;;;;;;;;;;;;;;10.76;48.44;102234.25;5053068;28;19925;-86
2023/12/27 10:00:46;;;;;;;;;;;;;;;10.85;48.66;102227.63;5053469;28;19946;-88
2023/12/27 10:03:13;;;;;;;;;;;;;;;10.97;48.24;102227.78;5054796;28;19920;-90
2023/12/27 10:05:58;;;;;;;;;;;;;;;11.05;48.24;102237.44;5053597;28;19920;-86
2023/12/27 10:08:23;;;;;;;;;;;;;;;11.11;48.19;102232.03;5053754;28;20055;-89
2023/12/27 10:10:50;;;;;;;;;;;;;;;11.17;48.25;102235.72;5056179;28;20015;-91
2023/12/27 10:13:15;;;;;;;;;;;;;;;11.24;48.41;102233.81;5058666;28;19970;-87
2023/12/27 10:15:41;;;;;;;;;;;;;;;11.38;48.29;102243.44;5058091;28;19924;-88
2023/12/27 10:18:07;;;;;;;;;;;;;;;11.48;47.82;102216.09;5056343;28;20423;-84
2023/12/27 10:20:36;;;;;;;;;;;;;;;11.59;48.09;102222.63;5048276;28;19916;-86
2023/12/27 10:23:01;;;;;;;;;;;;;;;11.75;47.43;102212.16;5061167;28;19924;-85
2023/12/27 10:25:28;;;;;;;;;;;;;;;11.86;47.51;102210.66;5060567;28;19920;-85
2023/12/27 10:27:54;;;;;;;;;;;;;;;11.95;47.39;102211.19;5057003;28;19956;-91
2023/12/27 10:30:19;;;;;;;;;;;;;;;12.00;47.33;102204.09;5053253;28;20067;-83
2023/12/27 10:32:55;;;;;;;;;;;;;;;12.13;47.23;102203.16;5082031;28;19939;-86
2023/12/27 10:35:20;;;;;;;;;;;;;;;12.27;47.46;102199.28;5062045;28;19921;-91
2023/12/27 10:37:46;;;;;;;;;;;;;;;12.48;47.26;102207.94;5052370;28;19917;-87
2023/12/27 10:40:11;;;;;;;;;;;;;;;12.64;46.98;102202.75;5052758;28;19928;-84
2023/12/27 10:42:36;;;;;;;;;;;;;;;12.80;47.23;102212.09;5049762;28;20375;-85
2023/12/27 10:45:02;;;;;;;;;;;;;;;12.97;46.73;102202.31;5087674;27;20036;-85
2023/12/27 10:47:29;;;;;;;;;;;;;;;13.12;46.45;102203.78;5056793;28;19967;-86
2023/12/27 10:49:56;;;;;;;;;;;;;;;13.22;46.10;102199.50;5055858;28;20448;-85
2023/12/27 10:52:22;;;;;;;;;;;;;;;13.35;46.20;102209.25;5053767;28;20014;-85
2023/12/27 10:54:50;;;;;;;;;;;;;;;13.48;46.13;102195.59;5053497;28;20626;-85
2023/12/27 10:57:18;;;;;;;;;;;;;;;13.60;45.98;102191.03;5055242;28;19920;-85
2023/12/27 10:59:44;;;;;;;;;;;;;;;13.59;45.55;102196.63;5055868;28;20307;-86
2023/12/27 11:02:12;;;;;;;;;;;;;;;13.74;45.81;102198.88;5052390;28;19917;-85
2023/12/27 11:04:37;;;;;;;;;;;;;;;13.79;45.37;102199.00;5050585;28;20024;-84
2023/12/27 11:07:03;;;;;;;;;;;;;;;13.85;45.30;102192.69;5055735;28;20003;-85
2023/12/27 11:09:30;;;;;;;;;;;;;;;13.95;45.34;102194.78;5054736;28;19928;-86
2023/12/27 11:11:56;;;;;;;;;;;;;;;13.92;45.01;102190.69;5058330;28;19923;-85
2023/12/27 11:14:24;;;;;;;;;;;;;;;13.88;44.58;102190.34;5055352;28;19928;-86
2023/12/27 11:16:52;;;;;;;;;;;;;;;13.85;44.57;102181.91;5058412;28;19920;-87
2023/12/27 11:19:18;;;;;;;;;;;;;;;13.75;44.84;102187.88;5052669;28;19992;-87
2023/12/27 11:21:44;;;;;;;;;;;;;;;13.71;44.93;102186.72;5059526;28;19947;-85
2023/12/27 11:24:09;;;;;;;;;;;;;;;13.72;44.97;102184.84;5060492;28;20455;-85
2023/12/27 11:26:36;;;;;;;;;;;;;;;13.78;44.93;102183.88;5058449;28;19955;-88
2023/12/27 11:29:03;;;;;;;;;;;;;;;13.88;45.00;102184.13;5062468;28;19924;-85
2023/12/27 11:31:29;;;;;;;;;;;;;;;13.96;44.71;102177.56;5061582;28;20496;-88
2023/12/27 11:33:55;;;;;;;;;;;;;;;13.97;44.58;102179.19;5068323;28;19942;-92
2023/12/27 11:36:20;;;;;;;;;;;;;;;13.96;44.29;102175.69;5060399;28;19917;-86
2023/12/27 11:38:46;;;;;;;;;;;;;;;13.95;44.52;102163.25;5060616;28;19923;-91
2023/12/27 11:41:12;;;;;;;;;;;;;;;13.99;44.80;102172.50;5066909;28;20292;-90
2023/12/27 11:43:50;;;;;;;;;;;;;;;14.12;44.47;102169.56;5067691;28;19925;-90
2023/12/27 11:46:23;;;;;;;;;;;;;;;14.24;44.55;102163.34;5067989;28;19946;-88
2023/12/27 11:48:48;;;;;;;;;;;;;;;14.31;44.02;102155.94;5062478;28;20273;-90
2023/12/27 11:51:32;;;;;;;;;;;;;;;14.37;43.93;102157.69;5059546;28;19916;-89
2023/12/27 11:53:57;;;;;;;;;;;;;;;14.43;44.13;102154.03;5060805;28;19920;-90
2023/12/27 11:56:24;;;;;;;;;;;;;;;14.62;43.95;102157.41;5067693;28;19916;-86
2023/12/27 11:58:49;;;;;;;;;;;;;;;14.89;43.88;102152.22;5064271;28;19927;-88
2023/12/27 12:01:30;;;;;;;;;;;;;;;14.96;43.25;102147.50;5064473;28;19996;-86
2023/12/27 12:04:06;;;;;;;;;;;;;;;14.81;42.91;102146.16;5065279;28;20743;-91
2023/12/27 12:06:33;;;;;;;;;;;;;;;14.95;43.30;102143.16;5060062;28;19916;-91
2023/12/27 12:08:59;;;;;;;;;;;;;;;15.02;42.71;102135.72;5060139;28;19969;-91
2023/12/27 12:11:26;;;;;;;;;;;;;;;15.17;43.46;102133.28;5063189;28;19920;-91
2023/12/27 12:13:51;;;;;;;;;;;;;;;15.41;42.58;102132.03;5068016;28;19920;-90
2023/12/27 12:16:17;;;;;;;;;;;;;;;15.62;41.98;102132.41;5069620;28;19981;-93
2023/12/27 12:18:43;;;;;;;;;;;;;;;15.69;41.83;102130.34;5063487;28;19920;-94
2023/12/27 12:21:09;;;;;;;;;;;;;;;15.66;41.59;102120.03;5067739;28;20016;-93
2023/12/27 12:23:34;;;;;;;;;;;;;;;15.57;41.88;102116.88;5064054;28;20011;-92
2023/12/27 12:26:01;;;;;;;;;;;;;;;15.34;41.75;102112.50;5066335;28;19920;-91
2023/12/27 12:28:27;;;;;;;;;;;;;;;15.06;41.40;102115.28;5060957;28;19920;-90
2023/12/27 12:30:54;;;;;;;;;;;;;;;14.77;42.58;102122.63;5057712;28;19931;-91